sensor_id;sensor_type;location;lat;lon;timestamp;temperature;humidity
23377;DHT22;14353;46.070;13.222;2023-04-24T00:00:57;22.60;46.40
23377;DHT22;14353;46.070;13.222;2023-04-24T00:03:24;22.60;46.40
23377;DHT22;14353;46.070;13.222;2023-04-24T00:05:51;22.60;46.50
23377;DHT22;14353;46.070;13.222;2023-04-24T00:08:17;22.60;46.50
23377;DHT22;14353;46.070;13.222;2023-04-24T00:10:43;22.50;46.40
23377;DHT22;14353;46.070;13.222;2023-04-24T00:13:12;22.50;46.50
23377;DHT22;14353;46.070;13.222;2023-04-24T00:15:38;22.60;46.50
23377;DHT22;14353;46.070;13.222;2023-04-24T00:18:03;22.60;46.50
23377;DHT22;14353;46.070;13.222;2023-04-24T00:20:29;22.50;46.50
23377;DHT22;14353;46.070;13.222;2023-04-24T00:22:55;22.50;46.50
23377;DHT22;14353;46.070;13.222;2023-04-24T00:25:21;22.50;46.50
23377;DHT22;14353;46.070;13.222;2023-04-24T00:27:47;22.50;46.50
23377;DHT22;14353;46.070;13.222;2023-04-24T00:30:13;22.50;46.60
23377;DHT22;14353;46.070;13.222;2023-04-24T00:32:38;22.50;46.60
23377;DHT22;14353;46.070;13.222;2023-04-24T00:35:05;22.50;46.60
23377;DHT22;14353;46.070;13.222;2023-04-24T00:37:31;22.50;46.60
23377;DHT22;14353;46.070;13.222;2023-04-24T00:39:57;22.50;46.60
23377;DHT22;14353;46.070;13.222;2023-04-24T00:42:23;22.50;46.60
23377;DHT22;14353;46.070;13.222;2023-04-24T00:44:49;22.50;46.60
23377;DHT22;14353;46.070;13.222;2023-04-24T00:47:15;22.50;46.60
23377;DHT22;14353;46.070;13.222;2023-04-24T00:49:41;22.50;46.60
23377;DHT22;14353;46.070;13.222;2023-04-24T00:52:06;22.50;46.60
23377;DHT22;14353;46.070;13.222;2023-04-24T00:54:33;22.50;46.60
23377;DHT22;14353;46.070;13.222;2023-04-24T00:56:59;22.50;46.70
23377;DHT22;14353;46.070;13.222;2023-04-24T00:59:25;22.50;46.60
23377;DHT22;14353;46.070;13.222;2023-04-24T01:01:51;22.50;46.70
23377;DHT22;14353;46.070;13.222;2023-04-24T01:04:18;22.50;46.70
23377;DHT22;14353;46.070;13.222;2023-04-24T01:06:44;22.50;46.70
23377;DHT22;14353;46.070;13.222;2023-04-24T01:09:11;22.50;46.70
23377;DHT22;14353;46.070;13.222;2023-04-24T01:11:37;22.50;46.70
23377;DHT22;14353;46.070;13.222;2023-04-24T01:14:03;22.50;46.70
23377;DHT22;14353;46.070;13.222;2023-04-24T01:16:29;22.50;46.70
23377;DHT22;14353;46.070;13.222;2023-04-24T01:18:55;22.50;46.70
23377;DHT22;14353;46.070;13.222;2023-04-24T01:21:21;22.40;46.70
23377;DHT22;14353;46.070;13.222;2023-04-24T01:23:49;22.50;46.70
23377;DHT22;14353;46.070;13.222;2023-04-24T01:26:16;22.40;46.70
23377;DHT22;14353;46.070;13.222;2023-04-24T01:28:42;22.40;46.70
23377;DHT22;14353;46.070;13.222;2023-04-24T01:31:08;22.40;46.70
23377;DHT22;14353;46.070;13.222;2023-04-24T01:33:34;22.50;46.70
23377;DHT22;14353;46.070;13.222;2023-04-24T01:36:00;22.40;46.80
23377;DHT22;14353;46.070;13.222;2023-04-24T01:38:26;22.50;46.80
23377;DHT22;14353;46.070;13.222;2023-04-24T01:40:52;22.40;46.70
23377;DHT22;14353;46.070;13.222;2023-04-24T01:43:18;22.40;46.70
23377;DHT22;14353;46.070;13.222;2023-04-24T01:45:44;22.40;46.80
23377;DHT22;14353;46.070;13.222;2023-04-24T01:48:11;22.40;46.80
23377;DHT22;14353;46.070;13.222;2023-04-24T01:50:37;22.40;46.80
23377;DHT22;14353;46.070;13.222;2023-04-24T01:53:03;22.40;46.80
23377;DHT22;14353;46.070;13.222;2023-04-24T01:55:29;22.40;46.80
23377;DHT22;14353;46.070;13.222;2023-04-24T01:57:56;22.40;46.80
23377;DHT22;14353;46.070;13.222;2023-04-24T02:00:23;22.40;47.40
23377;DHT22;14353;46.070;13.222;2023-04-24T02:02:50;22.40;46.80
23377;DHT22;14353;46.070;13.222;2023-04-24T02:05:15;22.40;46.80
23377;DHT22;14353;46.070;13.222;2023-04-24T02:07:41;22.40;46.80
23377;DHT22;14353;46.070;13.222;2023-04-24T02:10:07;22.40;46.90
23377;DHT22;14353;46.070;13.222;2023-04-24T02:12:33;22.40;46.90
23377;DHT22;14353;46.070;13.222;2023-04-24T02:14:59;22.40;46.90
23377;DHT22;14353;46.070;13.222;2023-04-24T02:17:24;22.40;46.90
23377;DHT22;14353;46.070;13.222;2023-04-24T02:19:50;22.40;46.90
23377;DHT22;14353;46.070;13.222;2023-04-24T02:22:16;22.40;46.90
23377;DHT22;14353;46.070;13.222;2023-04-24T02:24:42;22.40;46.90
23377;DHT22;14353;46.070;13.222;2023-04-24T02:27:07;22.40;46.90
23377;DHT22;14353;46.070;13.222;2023-04-24T02:29:33;22.40;47.00
23377;DHT22;14353;46.070;13.222;2023-04-24T02:31:59;22.40;47.00
23377;DHT22;14353;46.070;13.222;2023-04-24T02:34:25;22.40;47.00
23377;DHT22;14353;46.070;13.222;2023-04-24T02:36:50;22.40;46.90
23377;DHT22;14353;46.070;13.222;2023-04-24T02:39:16;22.40;46.90
23377;DHT22;14353;46.070;13.222;2023-04-24T02:41:45;22.40;46.90
23377;DHT22;14353;46.070;13.222;2023-04-24T02:44:10;22.40;47.00
23377;DHT22;14353;46.070;13.222;2023-04-24T02:46:36;22.40;47.00
23377;DHT22;14353;46.070;13.222;2023-04-24T02:49:02;22.40;47.00
23377;DHT22;14353;46.070;13.222;2023-04-24T02:51:28;22.40;47.00
23377;DHT22;14353;46.070;13.222;2023-04-24T02:53:54;22.40;47.00
23377;DHT22;14353;46.070;13.222;2023-04-24T02:56:19;22.30;46.90
23377;DHT22;14353;46.070;13.222;2023-04-24T02:58:45;22.30;46.90
23377;DHT22;14353;46.070;13.222;2023-04-24T03:01:12;22.30;47.00
23377;DHT22;14353;46.070;13.222;2023-04-24T03:03:39;22.40;47.00
23377;DHT22;14353;46.070;13.222;2023-04-24T03:06:05;22.30;47.00
23377;DHT22;14353;46.070;13.222;2023-04-24T03:08:34;22.30;47.00
23377;DHT22;14353;46.070;13.222;2023-04-24T03:11:00;22.30;47.00
23377;DHT22;14353;46.070;13.222;2023-04-24T03:13:26;22.30;47.00
23377;DHT22;14353;46.070;13.222;2023-04-24T03:15:51;22.30;47.00
23377;DHT22;14353;46.070;13.222;2023-04-24T03:18:18;22.30;47.00
23377;DHT22;14353;46.070;13.222;2023-04-24T03:20:46;22.30;47.00
23377;DHT22;14353;46.070;13.222;2023-04-24T03:23:12;22.30;47.00
23377;DHT22;14353;46.070;13.222;2023-04-24T03:25:38;22.30;47.00
23377;DHT22;14353;46.070;13.222;2023-04-24T03:28:04;22.30;47.00
23377;DHT22;14353;46.070;13.222;2023-04-24T03:30:30;22.30;47.00
23377;DHT22;14353;46.070;13.222;2023-04-24T03:32:55;22.30;47.00
23377;DHT22;14353;46.070;13.222;2023-04-24T03:35:21;22.30;47.00
23377;DHT22;14353;46.070;13.222;2023-04-24T03:37:47;22.30;47.00
23377;DHT22;14353;46.070;13.222;2023-04-24T03:40:13;22.30;47.10
23377;DHT22;14353;46.070;13.222;2023-04-24T03:42:39;22.30;47.10
23377;DHT22;14353;46.070;13.222;2023-04-24T03:45:05;22.30;47.00
23377;DHT22;14353;46.070;13.222;2023-04-24T03:47:31;22.30;47.10
23377;DHT22;14353;46.070;13.222;2023-04-24T03:49:56;22.30;47.10
23377;DHT22;14353;46.070;13.222;2023-04-24T03:52:25;22.30;47.10
23377;DHT22;14353;46.070;13.222;2023-04-24T03:54:51;22.30;47.10
23377;DHT22;14353;46.070;13.222;2023-04-24T03:57:16;22.30;47.10
23377;DHT22;14353;46.070;13.222;2023-04-24T03:59:42;22.30;47.10
23377;DHT22;14353;46.070;13.222;2023-04-24T04:02:08;22.30;47.10
23377;DHT22;14353;46.070;13.222;2023-04-24T04:04:33;22.30;47.10
23377;DHT22;14353;46.070;13.222;2023-04-24T04:06:59;22.30;47.10
23377;DHT22;14353;46.070;13.222;2023-04-24T04:09:27;22.30;47.10
23377;DHT22;14353;46.070;13.222;2023-04-24T04:11:52;22.30;47.10
23377;DHT22;14353;46.070;13.222;2023-04-24T04:14:18;22.20;47.10
23377;DHT22;14353;46.070;13.222;2023-04-24T04:16:44;22.20;47.10
23377;DHT22;14353;46.070;13.222;2023-04-24T04:19:10;22.30;47.20
23377;DHT22;14353;46.070;13.222;2023-04-24T04:21:36;22.20;47.10
23377;DHT22;14353;46.070;13.222;2023-04-24T04:24:01;22.30;47.20
23377;DHT22;14353;46.070;13.222;2023-04-24T04:26:27;22.20;47.10
23377;DHT22;14353;46.070;13.222;2023-04-24T04:28:53;22.20;47.10
23377;DHT22;14353;46.070;13.222;2023-04-24T04:31:20;22.20;47.10
23377;DHT22;14353;46.070;13.222;2023-04-24T04:33:46;22.20;47.10
23377;DHT22;14353;46.070;13.222;2023-04-24T04:36:12;22.20;47.10
23377;DHT22;14353;46.070;13.222;2023-04-24T04:38:37;22.20;47.10
23377;DHT22;14353;46.070;13.222;2023-04-24T04:41:03;22.20;47.10
23377;DHT22;14353;46.070;13.222;2023-04-24T04:43:29;22.20;47.10
23377;DHT22;14353;46.070;13.222;2023-04-24T04:45:59;22.20;47.20
23377;DHT22;14353;46.070;13.222;2023-04-24T04:48:26;22.30;47.20
23377;DHT22;14353;46.070;13.222;2023-04-24T04:50:52;22.20;47.10
23377;DHT22;14353;46.070;13.222;2023-04-24T04:53:18;22.20;47.20
23377;DHT22;14353;46.070;13.222;2023-04-24T04:55:43;22.20;47.20
23377;DHT22;14353;46.070;13.222;2023-04-24T04:58:09;22.20;47.10
23377;DHT22;14353;46.070;13.222;2023-04-24T05:00:35;22.20;47.20
23377;DHT22;14353;46.070;13.222;2023-04-24T05:03:03;22.20;47.20
23377;DHT22;14353;46.070;13.222;2023-04-24T05:05:29;22.20;47.10
23377;DHT22;14353;46.070;13.222;2023-04-24T05:07:55;22.20;47.10
23377;DHT22;14353;46.070;13.222;2023-04-24T05:10:21;22.20;47.10
23377;DHT22;14353;46.070;13.222;2023-04-24T05:12:46;22.20;47.10
23377;DHT22;14353;46.070;13.222;2023-04-24T05:15:12;22.30;47.10
23377;DHT22;14353;46.070;13.222;2023-04-24T05:17:38;22.20;47.10
23377;DHT22;14353;46.070;13.222;2023-04-24T05:20:05;22.30;47.10
23377;DHT22;14353;46.070;13.222;2023-04-24T05:22:32;22.30;47.10
23377;DHT22;14353;46.070;13.222;2023-04-24T05:24:58;22.30;47.10
23377;DHT22;14353;46.070;13.222;2023-04-24T05:27:24;22.30;47.10
23377;DHT22;14353;46.070;13.222;2023-04-24T05:29:50;22.30;47.10
23377;DHT22;14353;46.070;13.222;2023-04-24T05:32:16;22.30;47.10
23377;DHT22;14353;46.070;13.222;2023-04-24T05:34:42;22.30;47.10
23377;DHT22;14353;46.070;13.222;2023-04-24T05:37:07;22.30;47.10
23377;DHT22;14353;46.070;13.222;2023-04-24T05:39:35;22.30;47.10
23377;DHT22;14353;46.070;13.222;2023-04-24T05:42:01;22.30;47.10
23377;DHT22;14353;46.070;13.222;2023-04-24T05:44:27;22.30;47.10
23377;DHT22;14353;46.070;13.222;2023-04-24T05:46:54;22.30;47.00
23377;DHT22;14353;46.070;13.222;2023-04-24T05:49:21;22.30;47.10
23377;DHT22;14353;46.070;13.222;2023-04-24T05:51:46;22.30;47.10
23377;DHT22;14353;46.070;13.222;2023-04-24T05:54:12;22.30;47.10
23377;DHT22;14353;46.070;13.222;2023-04-24T05:56:39;22.30;47.10
23377;DHT22;14353;46.070;13.222;2023-04-24T05:59:04;22.20;47.00
23377;DHT22;14353;46.070;13.222;2023-04-24T06:01:30;22.30;47.10
23377;DHT22;14353;46.070;13.222;2023-04-24T06:03:56;22.30;47.10
23377;DHT22;14353;46.070;13.222;2023-04-24T06:06:23;22.30;47.00
23377;DHT22;14353;46.070;13.222;2023-04-24T06:08:49;22.30;47.00
23377;DHT22;14353;46.070;13.222;2023-04-24T06:11:15;22.30;47.10
23377;DHT22;14353;46.070;13.222;2023-04-24T06:13:41;22.30;47.10
23377;DHT22;14353;46.070;13.222;2023-04-24T06:16:07;22.20;47.00
23377;DHT22;14353;46.070;13.222;2023-04-24T06:18:32;22.30;47.10
23377;DHT22;14353;46.070;13.222;2023-04-24T06:20:58;22.20;47.00
23377;DHT22;14353;46.070;13.222;2023-04-24T06:23:23;22.20;47.00
23377;DHT22;14353;46.070;13.222;2023-04-24T06:25:49;22.30;47.10
23377;DHT22;14353;46.070;13.222;2023-04-24T06:28:15;22.20;47.00
23377;DHT22;14353;46.070;13.222;2023-04-24T06:30:41;22.20;47.00
23377;DHT22;14353;46.070;13.222;2023-04-24T06:33:07;22.20;47.00
23377;DHT22;14353;46.070;13.222;2023-04-24T06:35:36;22.20;47.00
23377;DHT22;14353;46.070;13.222;2023-04-24T06:38:01;22.30;47.00
23377;DHT22;14353;46.070;13.222;2023-04-24T06:40:27;22.30;47.00
23377;DHT22;14353;46.070;13.222;2023-04-24T06:42:52;22.30;47.00
23377;DHT22;14353;46.070;13.222;2023-04-24T06:45:18;22.30;47.00
23377;DHT22;14353;46.070;13.222;2023-04-24T06:47:44;22.30;47.00
23377;DHT22;14353;46.070;13.222;2023-04-24T06:50:10;22.30;46.90
23377;DHT22;14353;46.070;13.222;2023-04-24T06:52:37;22.30;46.90
23377;DHT22;14353;46.070;13.222;2023-04-24T06:55:03;22.30;46.80
23377;DHT22;14353;46.070;13.222;2023-04-24T06:57:29;22.30;46.80
23377;DHT22;14353;46.070;13.222;2023-04-24T06:59:55;22.30;46.80
23377;DHT22;14353;46.070;13.222;2023-04-24T07:02:20;22.30;46.80
23377;DHT22;14353;46.070;13.222;2023-04-24T07:04:46;22.30;46.90
23377;DHT22;14353;46.070;13.222;2023-04-24T07:07:13;22.30;46.90
23377;DHT22;14353;46.070;13.222;2023-04-24T07:09:40;22.30;46.90
23377;DHT22;14353;46.070;13.222;2023-04-24T07:12:08;22.30;46.90
23377;DHT22;14353;46.070;13.222;2023-04-24T07:14:40;22.30;46.90
23377;DHT22;14353;46.070;13.222;2023-04-24T07:17:06;22.30;47.00
23377;DHT22;14353;46.070;13.222;2023-04-24T07:19:33;22.30;47.00
23377;DHT22;14353;46.070;13.222;2023-04-24T07:22:00;22.20;46.90
23377;DHT22;14353;46.070;13.222;2023-04-24T07:24:26;22.30;47.00
23377;DHT22;14353;46.070;13.222;2023-04-24T07:26:53;22.30;47.00
23377;DHT22;14353;46.070;13.222;2023-04-24T07:29:19;22.30;47.00
23377;DHT22;14353;46.070;13.222;2023-04-24T07:31:45;22.30;47.00
23377;DHT22;14353;46.070;13.222;2023-04-24T07:34:11;22.30;47.00
23377;DHT22;14353;46.070;13.222;2023-04-24T07:36:36;22.30;47.00
23377;DHT22;14353;46.070;13.222;2023-04-24T07:39:04;22.30;47.00
23377;DHT22;14353;46.070;13.222;2023-04-24T07:41:30;22.30;47.00
23377;DHT22;14353;46.070;13.222;2023-04-24T07:43:56;22.30;46.90
23377;DHT22;14353;46.070;13.222;2023-04-24T07:46:21;22.30;46.90
23377;DHT22;14353;46.070;13.222;2023-04-24T07:48:49;22.30;47.00
23377;DHT22;14353;46.070;13.222;2023-04-24T07:51:15;22.30;46.90
23377;DHT22;14353;46.070;13.222;2023-04-24T07:53:42;22.30;46.80
23377;DHT22;14353;46.070;13.222;2023-04-24T07:56:08;22.30;46.70
23377;DHT22;14353;46.070;13.222;2023-04-24T07:58:34;22.40;46.70
23377;DHT22;14353;46.070;13.222;2023-04-24T08:01:00;22.40;46.70
23377;DHT22;14353;46.070;13.222;2023-04-24T08:03:25;22.40;46.60
23377;DHT22;14353;46.070;13.222;2023-04-24T08:05:51;22.40;46.70
23377;DHT22;14353;46.070;13.222;2023-04-24T08:08:17;22.40;46.60
23377;DHT22;14353;46.070;13.222;2023-04-24T08:10:43;22.40;46.60
23377;DHT22;14353;46.070;13.222;2023-04-24T08:13:08;22.40;46.60
23377;DHT22;14353;46.070;13.222;2023-04-24T08:15:34;22.40;46.60
23377;DHT22;14353;46.070;13.222;2023-04-24T08:18:00;22.40;46.60
23377;DHT22;14353;46.070;13.222;2023-04-24T08:20:26;22.40;46.60
23377;DHT22;14353;46.070;13.222;2023-04-24T08:22:52;22.40;46.60
23377;DHT22;14353;46.070;13.222;2023-04-24T08:25:17;22.40;46.60
23377;DHT22;14353;46.070;13.222;2023-04-24T08:27:44;22.40;46.60
23377;DHT22;14353;46.070;13.222;2023-04-24T08:30:10;22.50;46.60
23377;DHT22;14353;46.070;13.222;2023-04-24T08:32:36;22.50;46.60
23377;DHT22;14353;46.070;13.222;2023-04-24T08:35:03;22.50;46.60
23377;DHT22;14353;46.070;13.222;2023-04-24T08:37:29;22.50;46.60
23377;DHT22;14353;46.070;13.222;2023-04-24T08:39:54;22.40;46.50
23377;DHT22;14353;46.070;13.222;2023-04-24T08:42:21;22.40;46.60
23377;DHT22;14353;46.070;13.222;2023-04-24T08:44:49;22.40;46.60
23377;DHT22;14353;46.070;13.222;2023-04-24T08:47:15;22.40;46.70
23377;DHT22;14353;46.070;13.222;2023-04-24T08:49:41;22.40;46.60
23377;DHT22;14353;46.070;13.222;2023-04-24T08:52:08;22.40;46.70
23377;DHT22;14353;46.070;13.222;2023-04-24T08:54:36;22.30;46.70
23377;DHT22;14353;46.070;13.222;2023-04-24T08:57:03;22.30;46.70
23377;DHT22;14353;46.070;13.222;2023-04-24T08:59:30;22.30;46.80
23377;DHT22;14353;46.070;13.222;2023-04-24T09:01:56;22.30;46.80
23377;DHT22;14353;46.070;13.222;2023-04-24T09:04:22;22.30;46.90
23377;DHT22;14353;46.070;13.222;2023-04-24T09:06:56;22.30;46.80
23377;DHT22;14353;46.070;13.222;2023-04-24T09:09:23;22.30;46.90
23377;DHT22;14353;46.070;13.222;2023-04-24T09:11:50;22.30;46.90
23377;DHT22;14353;46.070;13.222;2023-04-24T09:14:17;22.30;47.00
23377;DHT22;14353;46.070;13.222;2023-04-24T09:16:43;22.20;46.90
23377;DHT22;14353;46.070;13.222;2023-04-24T09:19:09;22.20;46.90
23377;DHT22;14353;46.070;13.222;2023-04-24T09:21:35;22.30;47.10
23377;DHT22;14353;46.070;13.222;2023-04-24T09:24:03;22.20;47.00
23377;DHT22;14353;46.070;13.222;2023-04-24T09:26:35;22.20;47.00
23377;DHT22;14353;46.070;13.222;2023-04-24T09:29:02;22.20;47.00
23377;DHT22;14353;46.070;13.222;2023-04-24T09:31:29;22.30;47.00
23377;DHT22;14353;46.070;13.222;2023-04-24T09:36:37;22.30;47.00
23377;DHT22;14353;46.070;13.222;2023-04-24T09:39:13;22.30;47.00
23377;DHT22;14353;46.070;13.222;2023-04-24T09:41:50;22.30;46.90
23377;DHT22;14353;46.070;13.222;2023-04-24T09:44:26;22.30;46.90
23377;DHT22;14353;46.070;13.222;2023-04-24T09:46:57;22.30;46.90
23377;DHT22;14353;46.070;13.222;2023-04-24T09:49:28;22.30;46.80
23377;DHT22;14353;46.070;13.222;2023-04-24T09:54:29;22.40;46.80
23377;DHT22;14353;46.070;13.222;2023-04-24T09:56:56;22.40;46.90
23377;DHT22;14353;46.070;13.222;2023-04-24T09:59:22;22.30;46.90
23377;DHT22;14353;46.070;13.222;2023-04-24T10:01:48;22.30;47.00
23377;DHT22;14353;46.070;13.222;2023-04-24T10:04:19;22.30;47.00
23377;DHT22;14353;46.070;13.222;2023-04-24T10:06:46;22.30;47.10
23377;DHT22;14353;46.070;13.222;2023-04-24T10:09:14;22.20;47.10
23377;DHT22;14353;46.070;13.222;2023-04-24T10:11:45;22.20;47.10
23377;DHT22;14353;46.070;13.222;2023-04-24T10:14:19;22.20;47.20
23377;DHT22;14353;46.070;13.222;2023-04-24T10:16:46;22.20;47.20
23377;DHT22;14353;46.070;13.222;2023-04-24T10:19:16;22.20;47.20
23377;DHT22;14353;46.070;13.222;2023-04-24T10:21:44;22.20;47.40
23377;DHT22;14353;46.070;13.222;2023-04-24T10:24:17;22.20;47.30
23377;DHT22;14353;46.070;13.222;2023-04-24T10:26:44;22.20;47.40
23377;DHT22;14353;46.070;13.222;2023-04-24T10:29:12;22.20;47.40
23377;DHT22;14353;46.070;13.222;2023-04-24T10:31:38;22.10;47.40
23377;DHT22;14353;46.070;13.222;2023-04-24T10:34:08;22.10;47.40
23377;DHT22;14353;46.070;13.222;2023-04-24T10:36:36;22.20;47.40
23377;DHT22;14353;46.070;13.222;2023-04-24T10:39:07;22.20;47.40
23377;DHT22;14353;46.070;13.222;2023-04-24T10:41:33;22.20;47.30
23377;DHT22;14353;46.070;13.222;2023-04-24T10:44:09;22.20;47.20
23377;DHT22;14353;46.070;13.222;2023-04-24T10:46:35;22.30;47.30
23377;DHT22;14353;46.070;13.222;2023-04-24T10:49:04;22.30;47.20
23377;DHT22;14353;46.070;13.222;2023-04-24T10:51:47;22.30;47.10
23377;DHT22;14353;46.070;13.222;2023-04-24T10:54:45;22.30;47.10
23377;DHT22;14353;46.070;13.222;2023-04-24T11:00:09;22.40;47.00
23377;DHT22;14353;46.070;13.222;2023-04-24T11:02:37;22.40;47.00
23377;DHT22;14353;46.070;13.222;2023-04-24T11:05:03;22.40;47.00
23377;DHT22;14353;46.070;13.222;2023-04-24T11:10:28;22.30;47.00
23377;DHT22;14353;46.070;13.222;2023-04-24T11:12:54;22.30;47.00
23377;DHT22;14353;46.070;13.222;2023-04-24T11:15:20;22.40;47.10
23377;DHT22;14353;46.070;13.222;2023-04-24T11:17:45;22.30;47.10
23377;DHT22;14353;46.070;13.222;2023-04-24T11:20:15;22.40;47.10
23377;DHT22;14353;46.070;13.222;2023-04-24T11:22:42;22.30;47.10
23377;DHT22;14353;46.070;13.222;2023-04-24T11:25:10;22.30;47.10
23377;DHT22;14353;46.070;13.222;2023-04-24T11:27:44;22.30;47.10
23377;DHT22;14353;46.070;13.222;2023-04-24T11:30:17;22.30;47.10
23377;DHT22;14353;46.070;13.222;2023-04-24T11:32:43;22.30;47.20
23377;DHT22;14353;46.070;13.222;2023-04-24T11:35:20;22.30;47.10
23377;DHT22;14353;46.070;13.222;2023-04-24T11:37:52;22.30;47.10
23377;DHT22;14353;46.070;13.222;2023-04-24T11:40:20;22.30;47.10
23377;DHT22;14353;46.070;13.222;2023-04-24T11:42:49;22.40;47.10
23377;DHT22;14353;46.070;13.222;2023-04-24T11:45:17;22.30;47.10
23377;DHT22;14353;46.070;13.222;2023-04-24T11:47:44;22.30;47.00
23377;DHT22;14353;46.070;13.222;2023-04-24T11:50:14;22.30;47.00
23377;DHT22;14353;46.070;13.222;2023-04-24T11:52:42;22.30;47.10
23377;DHT22;14353;46.070;13.222;2023-04-24T11:55:23;22.40;47.10
23377;DHT22;14353;46.070;13.222;2023-04-24T11:57:56;22.40;47.00
23377;DHT22;14353;46.070;13.222;2023-04-24T12:00:27;22.40;47.00
23377;DHT22;14353;46.070;13.222;2023-04-24T12:05:30;22.40;47.00
23377;DHT22;14353;46.070;13.222;2023-04-24T12:07:56;22.30;47.00
23377;DHT22;14353;46.070;13.222;2023-04-24T12:10:25;22.40;47.10
23377;DHT22;14353;46.070;13.222;2023-04-24T12:12:51;22.30;47.00
23377;DHT22;14353;46.070;13.222;2023-04-24T12:15:19;22.30;47.10
23377;DHT22;14353;46.070;13.222;2023-04-24T12:17:45;22.40;47.10
23377;DHT22;14353;46.070;13.222;2023-04-24T12:20:12;22.40;47.10
23377;DHT22;14353;46.070;13.222;2023-04-24T12:22:49;22.40;47.10
23377;DHT22;14353;46.070;13.222;2023-04-24T12:25:17;22.40;47.00
23377;DHT22;14353;46.070;13.222;2023-04-24T12:27:51;22.40;47.10
23377;DHT22;14353;46.070;13.222;2023-04-24T12:30:17;22.40;47.10
23377;DHT22;14353;46.070;13.222;2023-04-24T12:32:46;22.40;47.10
23377;DHT22;14353;46.070;13.222;2023-04-24T12:35:12;22.40;47.00
23377;DHT22;14353;46.070;13.222;2023-04-24T12:37:38;22.40;47.10
23377;DHT22;14353;46.070;13.222;2023-04-24T12:40:11;22.40;47.10
23377;DHT22;14353;46.070;13.222;2023-04-24T12:42:49;22.40;47.00
23377;DHT22;14353;46.070;13.222;2023-04-24T12:45:19;22.40;47.10
23377;DHT22;14353;46.070;13.222;2023-04-24T12:47:46;22.40;47.10
23377;DHT22;14353;46.070;13.222;2023-04-24T12:50:13;22.40;47.10
23377;DHT22;14353;46.070;13.222;2023-04-24T12:52:40;22.40;47.10
23377;DHT22;14353;46.070;13.222;2023-04-24T12:55:06;22.40;47.10
23377;DHT22;14353;46.070;13.222;2023-04-24T12:57:38;22.40;47.10
23377;DHT22;14353;46.070;13.222;2023-04-24T13:00:06;22.40;47.10
23377;DHT22;14353;46.070;13.222;2023-04-24T13:02:33;22.40;47.10
23377;DHT22;14353;46.070;13.222;2023-04-24T13:04:59;22.40;47.10
23377;DHT22;14353;46.070;13.222;2023-04-24T13:07:25;22.40;47.10
23377;DHT22;14353;46.070;13.222;2023-04-24T13:09:52;22.40;47.10
23377;DHT22;14353;46.070;13.222;2023-04-24T13:12:18;22.40;47.10
23377;DHT22;14353;46.070;13.222;2023-04-24T13:14:44;22.40;47.20
23377;DHT22;14353;46.070;13.222;2023-04-24T13:17:11;22.30;47.20
23377;DHT22;14353;46.070;13.222;2023-04-24T13:19:42;22.30;47.20
23377;DHT22;14353;46.070;13.222;2023-04-24T13:22:10;22.30;47.20
23377;DHT22;14353;46.070;13.222;2023-04-24T13:24:36;22.30;47.30
23377;DHT22;14353;46.070;13.222;2023-04-24T13:27:02;22.30;47.30
23377;DHT22;14353;46.070;13.222;2023-04-24T13:29:28;22.30;47.30
23377;DHT22;14353;46.070;13.222;2023-04-24T13:31:55;22.30;47.30
23377;DHT22;14353;46.070;13.222;2023-04-24T13:34:25;22.30;47.30
23377;DHT22;14353;46.070;13.222;2023-04-24T13:36:53;22.30;47.40
23377;DHT22;14353;46.070;13.222;2023-04-24T13:39:19;22.30;47.40
23377;DHT22;14353;46.070;13.222;2023-04-24T13:41:45;22.30;47.40
23377;DHT22;14353;46.070;13.222;2023-04-24T13:44:12;22.30;47.40
23377;DHT22;14353;46.070;13.222;2023-04-24T13:46:38;22.30;47.40
23377;DHT22;14353;46.070;13.222;2023-04-24T13:49:04;22.30;47.40
23377;DHT22;14353;46.070;13.222;2023-04-24T13:51:32;22.20;47.40
23377;DHT22;14353;46.070;13.222;2023-04-24T13:53:58;22.20;47.40
23377;DHT22;14353;46.070;13.222;2023-04-24T13:56:25;22.20;47.40
23377;DHT22;14353;46.070;13.222;2023-04-24T13:58:51;22.20;47.40
23377;DHT22;14353;46.070;13.222;2023-04-24T14:01:17;22.20;47.50
23377;DHT22;14353;46.070;13.222;2023-04-24T14:03:42;22.20;47.50
23377;DHT22;14353;46.070;13.222;2023-04-24T14:06:11;22.20;47.50
23377;DHT22;14353;46.070;13.222;2023-04-24T14:08:37;22.20;47.50
23377;DHT22;14353;46.070;13.222;2023-04-24T14:11:02;22.20;47.50
23377;DHT22;14353;46.070;13.222;2023-04-24T14:13:29;22.20;47.50
23377;DHT22;14353;46.070;13.222;2023-04-24T14:15:54;22.20;47.50
23377;DHT22;14353;46.070;13.222;2023-04-24T14:18:20;22.20;47.60
23377;DHT22;14353;46.070;13.222;2023-04-24T14:20:46;22.20;47.60
23377;DHT22;14353;46.070;13.222;2023-04-24T14:23:11;22.20;47.60
23377;DHT22;14353;46.070;13.222;2023-04-24T14:25:37;22.20;47.60
23377;DHT22;14353;46.070;13.222;2023-04-24T14:28:03;22.20;47.50
23377;DHT22;14353;46.070;13.222;2023-04-24T14:30:29;22.20;47.60
23377;DHT22;14353;46.070;13.222;2023-04-24T14:32:54;22.20;47.60
23377;DHT22;14353;46.070;13.222;2023-04-24T14:35:20;22.20;47.60
23377;DHT22;14353;46.070;13.222;2023-04-24T14:37:46;22.20;47.60
23377;DHT22;14353;46.070;13.222;2023-04-24T14:40:13;22.20;47.60
23377;DHT22;14353;46.070;13.222;2023-04-24T14:42:39;22.20;47.60
23377;DHT22;14353;46.070;13.222;2023-04-24T14:45:06;22.20;47.60
23377;DHT22;14353;46.070;13.222;2023-04-24T14:47:33;22.10;47.60
23377;DHT22;14353;46.070;13.222;2023-04-24T14:49:58;22.20;47.70
23377;DHT22;14353;46.070;13.222;2023-04-24T14:52:25;22.20;47.60
23377;DHT22;14353;46.070;13.222;2023-04-24T14:54:50;22.20;47.60
23377;DHT22;14353;46.070;13.222;2023-04-24T14:57:16;22.20;47.70
23377;DHT22;14353;46.070;13.222;2023-04-24T14:59:42;22.20;47.70
23377;DHT22;14353;46.070;13.222;2023-04-24T15:02:07;22.20;47.70
23377;DHT22;14353;46.070;13.222;2023-04-24T15:04:33;22.20;47.60
23377;DHT22;14353;46.070;13.222;2023-04-24T15:06:59;22.20;47.60
23377;DHT22;14353;46.070;13.222;2023-04-24T15:09:24;22.20;47.70
23377;DHT22;14353;46.070;13.222;2023-04-24T15:11:51;22.20;47.60
23377;DHT22;14353;46.070;13.222;2023-04-24T15:14:18;22.20;47.60
23377;DHT22;14353;46.070;13.222;2023-04-24T15:16:44;22.20;47.60
23377;DHT22;14353;46.070;13.222;2023-04-24T15:19:10;22.20;47.50
23377;DHT22;14353;46.070;13.222;2023-04-24T15:21:36;22.20;47.50
23377;DHT22;14353;46.070;13.222;2023-04-24T15:24:04;22.20;47.50
23377;DHT22;14353;46.070;13.222;2023-04-24T15:26:30;22.20;47.50